createdAt,value
2023-01-08T00:01:40.403Z,8.27
2023-01-08T00:04:29.031Z,8.61
2023-01-08T00:07:11.241Z,8.46
2023-01-08T00:10:00.043Z,8.36
2023-01-08T00:12:42.211Z,8.31
2023-01-08T00:15:31.857Z,8.66
2023-01-08T00:18:20.977Z,8.64
2023-01-08T00:21:09.929Z,9.16
2023-01-08T00:23:58.988Z,9.29
2023-01-08T00:26:47.969Z,9.14
2023-01-08T00:29:30.289Z,8.80
2023-01-08T00:32:19.029Z,8.82
2023-01-08T00:35:02.618Z,8.89
2023-01-08T00:37:52.923Z,8.88
2023-01-08T00:40:35.584Z,8.86
2023-01-08T00:43:29.975Z,8.98
2023-01-08T00:46:22.015Z,9.14
2023-01-08T00:49:04.217Z,9.01
2023-01-08T00:51:52.891Z,8.76
2023-01-08T00:54:36.327Z,8.65
2023-01-08T00:57:24.886Z,8.63
2023-01-08T01:00:07.313Z,8.52
2023-01-08T01:02:56.029Z,8.48
2023-01-08T01:05:38.339Z,8.44
2023-01-08T01:08:26.944Z,8.46
2023-01-08T01:11:19.913Z,8.45
2023-01-08T01:14:02.340Z,8.44
2023-01-08T01:16:51.959Z,8.41
2023-01-08T01:19:34.249Z,8.39
2023-01-08T01:22:22.972Z,8.63
2023-01-08T01:25:05.745Z,8.82
2023-01-08T01:27:54.966Z,8.62
2023-01-08T01:30:44.118Z,8.50
2023-01-08T01:33:26.243Z,8.42
2023-01-08T01:36:15.932Z,8.48
2023-01-08T01:39:00.399Z,8.59
2023-01-08T01:41:53.963Z,8.52
2023-01-08T01:44:44.465Z,8.36
2023-01-08T01:47:46.947Z,8.95
2023-01-08T01:50:46.969Z,8.61
2023-01-08T01:53:34.098Z,8.41
2023-01-08T01:56:24.341Z,8.34
2023-01-08T01:59:07.243Z,8.39
2023-01-08T02:01:57.071Z,8.30
2023-01-08T02:04:39.367Z,8.36
2023-01-08T02:08:05.872Z,8.45
2023-01-08T02:11:04.968Z,8.22
2023-01-08T02:13:51.230Z,8.13
2023-01-08T02:16:53.970Z,8.33
2023-01-08T02:19:48.248Z,8.14
2023-01-08T02:22:42.868Z,8.01
2023-01-08T02:25:31.293Z,7.92
2023-01-08T02:28:22.861Z,7.92
2023-01-08T02:31:06.366Z,7.83
2023-01-08T02:33:54.865Z,7.84
2023-01-08T02:36:50.863Z,7.90
2023-01-08T02:40:14.162Z,7.80
2023-01-08T02:43:26.846Z,7.83
2023-01-08T02:46:21.294Z,8.00
2023-01-08T02:49:11.859Z,8.17
2023-01-08T02:52:05.278Z,8.31
2023-01-08T02:54:50.013Z,7.94
2023-01-08T02:57:41.309Z,7.83
2023-01-08T03:00:23.936Z,7.96
2023-01-08T03:03:28.318Z,8.03
2023-01-08T03:06:21.857Z,8.07
2023-01-08T03:09:11.202Z,8.08
2023-01-08T03:12:07.880Z,8.20
2023-01-08T03:14:57.293Z,8.16
2023-01-08T03:17:50.894Z,8.05
2023-01-08T03:20:34.651Z,8.11
2023-01-08T03:23:25.815Z,8.22
2023-01-08T03:26:15.240Z,8.18
2023-01-08T03:29:01.898Z,8.21
2023-01-08T03:31:52.981Z,8.10
2023-01-08T03:34:38.260Z,7.95
2023-01-08T03:37:32.846Z,7.98
2023-01-08T03:40:25.794Z,8.21
2023-01-08T03:43:14.959Z,8.41
2023-01-08T03:46:11.207Z,8.30
2023-01-08T03:48:54.921Z,8.11
2023-01-08T03:51:54.220Z,8.28
2023-01-08T03:54:40.929Z,8.44
2023-01-08T03:57:23.531Z,8.15
2023-01-08T04:00:12.866Z,8.09
2023-01-08T04:03:03.227Z,8.17
2023-01-08T04:05:46.215Z,8.27
2023-01-08T04:08:34.977Z,8.48
2023-01-08T04:11:17.186Z,8.43
2023-01-08T04:14:05.875Z,8.38
2023-01-08T04:16:48.295Z,8.46
2023-01-08T04:19:36.929Z,8.25
2023-01-08T04:22:19.188Z,8.24
2023-01-08T04:25:07.897Z,8.36
2023-01-08T04:27:50.200Z,8.27
2023-01-08T04:30:38.925Z,8.54
2023-01-08T04:33:21.246Z,8.50
2023-01-08T04:36:10.981Z,8.56
2023-01-08T04:38:59.927Z,8.84
2023-01-08T04:41:48.260Z,8.67
2023-01-08T04:44:42.876Z,8.85
2023-01-08T04:47:25.140Z,8.82
2023-01-08T04:50:13.948Z,8.97
2023-01-08T04:53:02.207Z,9.16
2023-01-08T04:55:44.951Z,9.23
2023-01-08T04:58:33.167Z,9.22
2023-01-08T05:01:28.080Z,9.68
2023-01-08T05:04:12.203Z,9.68
2023-01-08T05:07:01.218Z,9.84
2023-01-08T05:09:49.273Z,9.93
2023-01-08T05:12:31.909Z,10.25
2023-01-08T05:15:20.200Z,9.86
2023-01-08T05:18:13.955Z,9.97
2023-01-08T05:20:56.728Z,10.61
2023-01-08T05:23:46.842Z,10.66
2023-01-08T05:26:35.869Z,10.80
2023-01-08T05:29:24.816Z,10.84
2023-01-08T05:32:22.158Z,10.91
2023-01-08T05:35:03.993Z,10.92
2023-01-08T05:37:52.202Z,10.86
2023-01-08T05:40:34.878Z,10.88
2023-01-08T05:43:17.207Z,11.44
2023-01-08T05:46:05.974Z,11.44
2023-01-08T05:48:54.874Z,11.81
2023-01-08T05:51:43.832Z,12.30
2023-01-08T05:54:32.181Z,12.47
2023-01-08T05:57:13.823Z,12.34
2023-01-08T06:00:02.135Z,12.22
2023-01-08T06:02:47.019Z,12.79
2023-01-08T06:05:36.417Z,12.17
2023-01-08T06:08:17.828Z,12.22
2023-01-08T06:11:07.779Z,12.63
2023-01-08T06:13:58.888Z,12.70
2023-01-08T06:16:48.233Z,12.67
2023-01-08T06:19:30.931Z,12.80
2023-01-08T06:22:19.222Z,13.17
2023-01-08T06:25:01.852Z,13.88
2023-01-08T06:27:50.937Z,14.54
2023-01-08T06:30:39.943Z,14.94
2023-01-08T06:33:29.182Z,13.91
2023-01-08T06:36:12.926Z,14.83
2023-01-08T06:39:01.242Z,14.83
2023-01-08T06:41:42.905Z,15.20
2023-01-08T06:44:37.762Z,15.59
2023-01-08T06:47:26.934Z,14.99
2023-01-08T06:50:09.290Z,14.84
2023-01-08T06:53:01.844Z,14.83
2023-01-08T06:55:45.163Z,15.34
2023-01-08T06:58:37.941Z,15.71
2023-01-08T07:01:24.354Z,15.63
2023-01-08T07:04:12.889Z,15.74
2023-01-08T07:07:02.871Z,15.57
2023-01-08T07:09:51.884Z,15.40
2023-01-08T07:12:34.128Z,15.20
2023-01-08T07:15:22.917Z,15.44
2023-01-08T07:18:07.007Z,15.49
2023-01-08T07:20:57.916Z,15.67
2023-01-08T07:23:42.949Z,15.71
2023-01-08T07:26:31.799Z,15.69
2023-01-08T07:29:20.907Z,16.00
2023-01-08T07:32:03.841Z,15.79
2023-01-08T07:34:52.825Z,15.98
2023-01-08T07:37:42.175Z,15.85
2023-01-08T07:40:24.825Z,15.79
2023-01-08T07:43:14.748Z,15.88
2023-01-08T07:46:09.828Z,15.94
2023-01-08T07:48:58.534Z,16.14
2023-01-08T07:51:41.891Z,16.25
2023-01-08T07:54:30.207Z,16.25
2023-01-08T07:57:12.889Z,16.53
2023-01-08T08:00:01.177Z,16.62
2023-01-08T08:02:43.972Z,16.53
2023-01-08T08:05:32.096Z,16.71
2023-01-08T08:08:18.869Z,16.58
2023-01-08T08:11:08.200Z,16.58
2023-01-08T08:13:54.186Z,16.57
2023-01-08T08:16:43.770Z,16.71
2023-01-08T08:19:32.781Z,17.12
2023-01-08T08:22:22.191Z,16.87
2023-01-08T08:25:04.833Z,17.28
2023-01-08T08:27:53.853Z,16.86
2023-01-08T08:30:37.173Z,17.07
2023-01-08T08:33:25.828Z,16.63
2023-01-08T08:36:08.167Z,16.57
2023-01-08T08:38:56.831Z,16.87
2023-01-08T08:41:39.122Z,16.45
2023-01-08T08:44:27.817Z,16.19
2023-01-08T08:47:10.403Z,16.31
2023-01-08T08:49:58.859Z,16.71
2023-01-08T08:52:48.782Z,16.74
2023-01-08T08:55:38.163Z,16.88
2023-01-08T08:58:21.865Z,16.68
2023-01-08T09:01:05.145Z,16.97
2023-01-08T09:03:53.876Z,17.05
2023-01-08T09:06:42.853Z,17.14
2023-01-08T09:09:25.209Z,16.88
2023-01-08T09:12:14.880Z,16.89
2023-01-08T09:14:58.070Z,17.09
2023-01-08T09:17:47.908Z,17.07
2023-01-08T09:20:31.191Z,16.70
2023-01-08T09:23:19.887Z,16.48
2023-01-08T09:26:11.228Z,16.66
2023-01-08T09:28:59.862Z,16.48
2023-01-08T09:31:48.958Z,16.51
2023-01-08T09:34:38.893Z,16.57
2023-01-08T09:37:28.221Z,16.58
2023-01-08T09:40:16.120Z,16.44
2023-01-08T09:43:10.709Z,16.56
2023-01-08T09:46:10.791Z,16.46
2023-01-08T09:48:54.954Z,16.30
2023-01-08T09:51:49.909Z,16.13
2023-01-08T09:54:39.114Z,15.90
2023-01-08T09:57:26.863Z,15.79
2023-01-08T10:00:29.257Z,15.74
2023-01-08T10:03:11.855Z,15.70
2023-01-08T10:06:01.096Z,15.68
2023-01-08T10:08:42.876Z,15.48
2023-01-08T10:11:27.987Z,15.50
2023-01-08T10:14:16.791Z,15.45
2023-01-08T10:17:22.861Z,15.50
2023-01-08T10:20:05.360Z,15.60
2023-01-08T10:22:57.968Z,15.65
2023-01-08T10:25:40.230Z,15.68
2023-01-08T10:28:40.102Z,15.70
2023-01-08T10:31:24.313Z,15.82
2023-01-08T10:34:18.810Z,15.84
2023-01-08T10:37:03.194Z,15.82
2023-01-08T10:40:02.823Z,15.83
2023-01-08T10:42:45.133Z,15.94
2023-01-08T10:45:42.866Z,16.12
2023-01-08T10:48:34.298Z,16.12
2023-01-08T10:51:23.865Z,16.16
2023-01-08T10:54:45.183Z,16.18
2023-01-08T10:57:40.797Z,15.78
2023-01-08T11:00:41.179Z,15.91
2023-01-08T11:03:39.856Z,15.99
2023-01-08T11:06:35.317Z,16.12
2023-01-08T11:09:35.885Z,16.30
2023-01-08T11:12:23.888Z,16.33
2023-01-08T11:15:14.907Z,16.18
2023-01-08T11:18:12.137Z,16.04
2023-01-08T11:20:55.817Z,15.94
2023-01-08T11:23:44.771Z,15.85
2023-01-08T11:26:36.863Z,15.98
2023-01-08T11:29:38.391Z,15.96
2023-01-08T11:32:58.152Z,15.78
2023-01-08T11:35:46.315Z,15.44
2023-01-08T11:38:34.817Z,15.36
2023-01-08T11:41:31.418Z,15.40
2023-01-08T11:44:53.843Z,15.45
2023-01-08T11:48:19.135Z,15.25
2023-01-08T11:51:21.913Z,15.03
2023-01-08T11:54:19.143Z,14.83
2023-01-08T11:57:27.889Z,14.85
2023-01-08T12:00:38.681Z,14.87
2023-01-08T12:03:45.863Z,14.73
2023-01-08T12:07:06.178Z,14.80
2023-01-08T12:09:54.895Z,14.87
2023-01-08T12:12:47.576Z,14.88
2023-01-08T12:15:49.837Z,14.75
2023-01-08T12:18:43.791Z,14.46
2023-01-08T12:21:42.120Z,14.39
2023-01-08T12:25:02.862Z,14.28
2023-01-08T12:28:06.782Z,14.18
2023-01-08T12:31:21.232Z,14.09
2023-01-08T12:34:25.165Z,14.06
2023-01-08T12:37:23.171Z,14.18
2023-01-08T12:40:29.829Z,14.23
2023-01-08T12:43:30.884Z,14.06
2023-01-08T12:46:28.829Z,14.08
2023-01-08T12:49:27.724Z,13.84
2023-01-08T12:52:24.888Z,13.86
2023-01-08T12:55:24.708Z,13.57
2023-01-08T12:58:23.847Z,13.87
2023-01-08T13:01:26.002Z,13.65
2023-01-08T13:04:17.169Z,13.55
2023-01-08T13:07:06.813Z,13.73
2023-01-08T13:09:57.477Z,13.71
2023-01-08T13:12:51.836Z,13.77
2023-01-08T13:15:42.134Z,13.66
2023-01-08T13:18:27.846Z,13.73
2023-01-08T13:21:26.862Z,13.86
2023-01-08T13:24:40.879Z,13.78
2023-01-08T13:27:23.220Z,13.99
2023-01-08T13:30:11.778Z,13.79
2023-01-08T13:33:02.851Z,13.90
2023-01-08T13:35:51.089Z,13.83
2023-01-08T13:38:34.135Z,13.81
2023-01-08T13:42:12.334Z,13.92
2023-01-08T13:45:10.011Z,13.95
2023-01-08T13:47:59.832Z,14.01
2023-01-08T13:50:44.225Z,13.99
2023-01-08T13:53:32.868Z,14.08
2023-01-08T13:56:17.170Z,14.16
2023-01-08T13:59:16.917Z,14.17
2023-01-08T14:02:04.274Z,14.23
2023-01-08T14:08:31.180Z,14.02
2023-01-08T14:11:12.805Z,13.93
2023-01-08T14:13:55.540Z,13.96
2023-01-08T14:16:44.951Z,13.91
2023-01-08T14:22:37.877Z,13.78
2023-01-08T14:25:27.895Z,13.64
2023-01-08T14:28:15.119Z,13.59
2023-01-08T14:31:05.867Z,13.70
2023-01-08T14:33:57.117Z,13.62
2023-01-08T14:39:45.097Z,13.50
2023-01-08T14:42:54.765Z,13.60
2023-01-08T14:45:40.373Z,13.62
2023-01-08T14:48:34.036Z,13.54
2023-01-08T14:51:21.497Z,13.33
2023-01-08T14:54:13.852Z,13.25
2023-01-08T14:57:07.706Z,13.47
2023-01-08T15:00:05.837Z,13.32
2023-01-08T15:02:48.157Z,12.91
2023-01-08T15:05:41.846Z,12.84
2023-01-08T15:08:34.213Z,13.09
2023-01-08T15:11:38.812Z,13.46
2023-01-08T15:14:30.792Z,13.31
2023-01-08T15:17:25.853Z,12.75
2023-01-08T15:20:08.109Z,12.59
2023-01-08T15:22:56.822Z,12.60
2023-01-08T15:25:52.745Z,12.38
2023-01-08T15:28:42.842Z,12.47
2023-01-08T15:31:39.039Z,12.47
2023-01-08T15:34:28.826Z,12.56
2023-01-08T15:37:11.179Z,12.68
2023-01-08T15:39:59.875Z,12.69
2023-01-08T15:43:00.317Z,12.35
2023-01-08T15:45:53.882Z,12.12
2023-01-08T15:48:48.659Z,12.04
2023-01-08T15:51:42.118Z,12.40
2023-01-08T15:54:24.145Z,12.39
2023-01-08T15:57:12.857Z,12.25
2023-01-08T15:59:55.398Z,12.35
2023-01-08T16:02:54.945Z,12.40
2023-01-08T16:05:38.225Z,12.68
2023-01-08T16:08:26.787Z,12.51
2023-01-08T16:11:15.869Z,12.59
2023-01-08T16:14:04.919Z,12.55
2023-01-08T16:16:47.351Z,12.73
2023-01-08T16:19:38.815Z,12.72
2023-01-08T16:22:27.899Z,12.49
2023-01-08T16:25:18.163Z,12.34
2023-01-08T16:28:00.752Z,12.41
2023-01-08T16:30:44.213Z,12.35
2023-01-08T16:33:32.892Z,12.57
2023-01-08T16:36:21.811Z,12.54
2023-01-08T16:39:04.330Z,12.46
2023-01-08T16:41:52.783Z,12.24
2023-01-08T16:44:36.140Z,12.59
2023-01-08T16:47:24.904Z,12.61
2023-01-08T16:50:20.669Z,12.56
2023-01-08T16:53:12.192Z,12.66
2023-01-08T16:55:54.382Z,12.77
2023-01-08T16:58:43.910Z,12.88
2023-01-08T17:01:26.170Z,12.97
2023-01-08T17:04:14.738Z,13.01
2023-01-08T17:06:58.214Z,12.64
2023-01-08T17:09:47.894Z,12.52
2023-01-08T17:12:30.885Z,12.61
2023-01-08T17:15:19.860Z,12.68
2023-01-08T17:18:08.712Z,12.64
2023-01-08T17:21:01.847Z,12.66
2023-01-08T17:23:44.635Z,12.49
2023-01-08T17:26:33.951Z,12.45
2023-01-08T17:29:16.140Z,12.59
2023-01-08T17:32:04.845Z,12.63
2023-01-08T17:34:47.116Z,12.33
2023-01-08T17:37:38.754Z,12.43
2023-01-08T17:40:21.205Z,12.47
2023-01-08T17:43:09.958Z,12.45
2023-01-08T17:45:53.024Z,12.20
2023-01-08T17:48:50.769Z,11.98
2023-01-08T17:51:34.476Z,12.34
2023-01-08T17:54:27.779Z,12.38
2023-01-08T17:57:10.250Z,12.20
2023-01-08T17:59:59.771Z,12.18
2023-01-08T18:02:48.172Z,12.27
2023-01-08T18:05:30.776Z,11.79
2023-01-08T18:08:20.266Z,11.78
2023-01-08T18:11:02.116Z,12.00
2023-01-08T18:13:51.073Z,11.90
2023-01-08T18:16:34.013Z,11.89
2023-01-08T18:19:23.078Z,12.21
2023-01-08T18:22:05.743Z,11.87
2023-01-08T18:24:47.983Z,11.88
2023-01-08T18:27:36.823Z,12.26
2023-01-08T18:30:26.281Z,12.17
2023-01-08T18:33:07.805Z,11.78
2023-01-08T18:35:56.185Z,11.86
2023-01-08T18:38:38.823Z,11.85
2023-01-08T18:41:47.625Z,11.80
2023-01-08T18:44:30.903Z,11.76
2023-01-08T18:47:19.088Z,12.08
2023-01-08T18:50:15.873Z,11.87
2023-01-08T18:53:05.641Z,11.59
2023-01-08T18:55:48.723Z,11.69
2023-01-08T18:58:38.189Z,11.98
2023-01-08T19:01:20.948Z,11.90
2023-01-08T19:04:03.549Z,11.84
2023-01-08T19:06:52.804Z,11.88
2023-01-08T19:09:41.156Z,11.66
2023-01-08T19:12:23.764Z,11.73
2023-01-08T19:15:13.442Z,11.70
2023-01-08T19:17:56.827Z,11.67
2023-01-08T19:20:51.110Z,11.62
2023-01-08T19:23:33.758Z,11.39
2023-01-08T19:26:23.135Z,11.60
2023-01-08T19:29:05.880Z,11.47
2023-01-08T19:31:55.225Z,11.32
2023-01-08T19:34:37.907Z,11.48
2023-01-08T19:37:27.576Z,11.62
2023-01-08T19:40:10.730Z,11.39
2023-01-08T19:43:17.465Z,11.44
2023-01-08T19:45:59.935Z,11.61
2023-01-08T19:48:55.654Z,11.34
2023-01-08T19:51:44.780Z,11.43
2023-01-08T19:54:27.293Z,11.46
2023-01-08T19:57:15.763Z,11.33
2023-01-08T19:59:58.269Z,11.26
2023-01-08T20:02:53.772Z,11.02
2023-01-08T20:05:36.044Z,11.02
2023-01-08T20:08:24.811Z,11.07
2023-01-08T20:11:19.788Z,11.04
2023-01-08T20:14:09.199Z,10.97
2023-01-08T20:16:52.089Z,10.86
2023-01-08T20:19:40.208Z,10.72
2023-01-08T20:22:22.804Z,10.62
2023-01-08T20:25:06.088Z,10.73
2023-01-08T20:27:54.709Z,10.66
2023-01-08T20:30:43.755Z,10.62
2023-01-08T20:33:26.079Z,10.75
2023-01-08T20:36:23.808Z,11.12
2023-01-08T20:39:13.048Z,10.77
2023-01-08T20:42:04.671Z,10.95
2023-01-08T20:44:46.977Z,10.95
2023-01-08T20:47:35.814Z,10.84
2023-01-08T20:50:26.111Z,10.76
2023-01-08T20:53:07.815Z,10.74
2023-01-08T20:55:50.225Z,11.05
2023-01-08T20:58:38.715Z,11.12
2023-01-08T21:01:32.505Z,10.88
2023-01-08T21:04:18.868Z,10.80
2023-01-08T21:07:01.410Z,10.78
2023-01-08T21:09:51.745Z,10.88
2023-01-08T21:12:34.096Z,10.86
2023-01-08T21:15:23.783Z,10.77
2023-01-08T21:18:06.111Z,10.79
2023-01-08T21:20:54.702Z,10.74
2023-01-08T21:23:36.947Z,10.60
2023-01-08T21:26:26.708Z,10.76
2023-01-08T21:29:10.140Z,10.87
2023-01-08T21:31:58.867Z,10.55
2023-01-08T21:34:47.681Z,10.63
2023-01-08T21:37:32.390Z,10.67
2023-01-08T21:40:22.796Z,10.56
2023-01-08T21:43:23.187Z,10.62
2023-01-08T21:46:11.835Z,10.59
2023-01-08T21:48:55.104Z,10.49
2023-01-08T21:52:01.787Z,10.60
2023-01-08T21:54:44.094Z,10.63
2023-01-08T21:57:35.696Z,10.54
2023-01-08T22:00:26.772Z,10.39
2023-01-08T22:03:15.811Z,10.62
2023-01-08T22:06:09.066Z,10.35
2023-01-08T22:09:01.683Z,10.54
2023-01-08T22:11:44.078Z,10.34
2023-01-08T22:14:32.784Z,10.35
2023-01-08T22:17:15.543Z,10.59
2023-01-08T22:20:05.737Z,10.23
2023-01-08T22:22:48.179Z,10.18
2023-01-08T22:25:36.735Z,10.20
2023-01-08T22:28:18.951Z,10.02
2023-01-08T22:31:12.792Z,9.97
2023-01-08T22:33:55.323Z,10.20
2023-01-08T22:36:43.712Z,9.95
2023-01-08T22:39:25.961Z,10.21
2023-01-08T22:42:14.687Z,10.12
2023-01-08T22:44:58.003Z,9.99
2023-01-08T22:47:46.659Z,10.04
2023-01-08T22:50:29.077Z,10.40
2023-01-08T22:53:17.723Z,9.96
2023-01-08T22:56:00.246Z,9.87
2023-01-08T22:58:49.715Z,9.75
2023-01-08T23:01:34.119Z,9.73
2023-01-08T23:04:22.715Z,9.77
2023-01-08T23:07:05.019Z,9.73
2023-01-08T23:09:54.732Z,10.12
2023-01-08T23:12:36.995Z,9.80
2023-01-08T23:15:26.749Z,9.84
2023-01-08T23:18:09.060Z,9.86
2023-01-08T23:20:57.783Z,9.83
2023-01-08T23:23:40.064Z,9.78
2023-01-08T23:26:32.755Z,9.79
2023-01-08T23:29:15.013Z,9.81
2023-01-08T23:32:06.658Z,9.75
2023-01-08T23:34:49.042Z,9.76
2023-01-08T23:37:37.657Z,9.79
2023-01-08T23:40:20.021Z,9.76
2023-01-08T23:43:08.713Z,9.69
2023-01-08T23:45:51.025Z,9.71
2023-01-08T23:48:39.730Z,9.71
2023-01-08T23:51:28.999Z,9.72
2023-01-08T23:54:11.752Z,9.71
2023-01-08T23:57:00.731Z,9.64
2023-01-08T23:59:49.781Z,9.65
